Time;durP1;ratioP1;P1;durP2;ratioP2;P2;SDS_P1;SDS_P2;PMS_P1;PMS_P2;Temp;Humidity;BMP_temperature;BMP_pressure;BME280_temperature;BME280_humidity;BME280_pressure;Samples;Min_cycle;Max_cycle;Signal;HPM_P1;HPM_P2
2022/06/27 00:00:54;;;;;;;7.22;5.72;;;;;;;20.79;92.56;100499.13;5049056;28;20090;-76
2022/06/27 00:03:20;;;;;;;7.53;5.88;;;;;;;20.76;92.38;100499.16;5050476;28;20032;-75
2022/06/27 00:05:45;;;;;;;6.30;5.32;;;;;;;20.96;92.56;100553.28;5049235;28;20017;-78
2022/06/27 00:08:11;;;;;;;6.13;5.20;;;;;;;20.90;93.12;100554.22;5048813;28;20021;-76
2022/06/27 00:10:36;;;;;;;6.82;5.30;;;;;;;20.40;93.34;100482.66;5050135;28;20035;-77
2022/06/27 00:13:03;;;;;;;8.23;6.07;;;;;;;20.61;94.88;100560.41;5049718;28;20431;-75
2022/06/27 00:15:28;;;;;;;8.68;5.30;;;;;;;19.92;95.19;100453.94;5050092;28;20060;-74
2022/06/27 00:17:54;;;;;;;7.30;5.75;;;;;;;20.20;96.29;100541.25;5049859;28;20132;-74
2022/06/27 00:20:19;;;;;;;7.55;5.68;;;;;;;20.26;96.55;100550.00;5049904;28;20082;-75
2022/06/27 00:22:45;;;;;;;8.13;6.32;;;;;;;20.25;96.76;100548.22;5050114;28;20025;-75
2022/06/27 00:25:11;;;;;;;10.88;5.75;;;;;;;20.20;97.37;100562.22;5049755;28;20029;-74
2022/06/27 00:27:36;;;;;;;7.80;5.55;;;;;;;19.97;98.41;100540.41;5049614;28;20559;-76
2022/06/27 00:30:04;;;;;;;7.65;5.78;;;;;;;19.96;99.36;100541.28;5049805;28;20044;-76
2022/06/27 00:32:29;;;;;;;8.93;5.55;;;;;;;19.61;100.00;100531.66;5047993;28;20025;-76
2022/06/27 00:34:55;;;;;;;6.88;5.22;;;;;;;19.71;100.00;100546.50;5048520;28;20744;-76
2022/06/27 00:37:21;;;;;;;7.07;5.15;;;;;;;19.69;100.00;100538.63;5049726;28;20028;-75
2022/06/27 00:39:46;;;;;;;6.20;5.28;;;;;;;19.70;100.00;100522.06;5049675;28;20103;-77
2022/06/27 00:42:12;;;;;;;6.45;5.07;;;;;;;19.35;100.00;100456.56;5049469;28;20108;-75
2022/06/27 00:44:40;;;;;;;7.55;5.85;;;;;;;19.71;100.00;100539.53;5051366;28;20029;-76
2022/06/27 00:47:10;;;;;;;8.23;6.03;;;;;;;19.59;100.00;100531.66;5047632;28;20499;-76
2022/06/27 00:49:36;;;;;;;8.15;6.07;;;;;;;19.26;100.00;100511.53;5068391;28;20078;-75
2022/06/27 00:52:04;;;;;;;11.85;5.95;;;;;;;19.36;100.00;100536.84;5052032;28;20025;-76
2022/06/27 00:54:30;;;;;;;8.75;5.50;;;;;;;19.43;100.00;100543.84;5053298;28;20033;-76
2022/06/27 00:56:55;;;;;;;9.25;6.32;;;;;;;19.49;100.00;100515.06;5053241;28;20021;-76
2022/06/27 00:59:21;;;;;;;7.65;5.57;;;;;;;19.67;100.00;100529.91;5053448;28;20029;-76
2022/06/27 01:01:46;;;;;;;7.05;5.47;;;;;;;19.77;100.00;100541.25;5052740;28;20025;-76
2022/06/27 01:04:12;;;;;;;7.93;5.45;;;;;;;19.73;99.13;100531.66;5052832;28;20036;-76
2022/06/27 01:06:37;;;;;;;7.95;5.82;;;;;;;19.77;98.05;100536.00;5053004;28;20769;-76
2022/06/27 01:09:04;;;;;;;6.75;5.35;;;;;;;19.67;98.49;100526.41;5053156;28;20479;-77
2022/06/27 01:11:30;;;;;;;8.88;6.07;;;;;;;19.60;98.87;100553.47;5053039;28;20025;-76
2022/06/27 01:13:56;;;;;;;8.75;6.28;;;;;;;19.26;98.23;100469.66;5052936;28;20029;-76
2022/06/27 01:16:23;;;;;;;6.50;5.60;;;;;;;19.53;97.33;100503.69;5052956;28;20434;-76
2022/06/27 01:18:49;;;;;;;9.48;6.15;;;;;;;19.71;97.56;100512.44;5052855;28;20029;-74
2022/06/27 01:21:25;;;;;;;8.65;5.53;;;;;;;20.00;96.72;100543.03;5052800;28;20025;-76
2022/06/27 01:23:52;;;;;;;10.48;6.30;;;;;;;19.87;95.81;100500.25;5052945;28;20036;-75
2022/06/27 01:26:19;;;;;;;8.38;6.00;;;;;;;20.07;95.07;100544.75;5017191;28;20041;-79
2022/06/27 01:28:45;;;;;;;8.20;6.35;;;;;;;19.94;95.44;100527.31;5052598;28;20044;-76
2022/06/27 01:31:11;;;;;;;8.30;5.75;;;;;;;19.98;95.79;100523.81;5052421;28;20040;-79
2022/06/27 01:33:37;;;;;;;8.70;5.68;;;;;;;20.03;95.54;100538.66;5052992;28;20104;-79
2022/06/27 01:38:48;;;;;;;8.63;5.90;;;;;;;19.07;99.22;100475.72;5052483;28;20090;-75
2022/06/27 01:41:13;;;;;;;8.35;6.18;;;;;;;19.31;100.00;100542.06;5050979;28;20404;-75
2022/06/27 01:43:39;;;;;;;7.97;5.95;;;;;;;19.05;100.00;100492.28;5052254;28;20052;-76
2022/06/27 01:46:04;;;;;;;6.88;5.72;;;;;;;19.36;100.00;100523.75;5051437;28;20025;-76
2022/06/27 01:48:31;;;;;;;9.77;6.00;;;;;;;19.58;99.18;100549.97;5052445;28;20044;-75
2022/06/27 01:50:58;;;;;;;8.20;6.68;;;;;;;19.60;98.82;100540.38;5052274;28;20060;-76
2022/06/27 01:53:26;;;;;;;11.15;6.28;;;;;;;19.63;98.62;100550.88;5051877;28;20032;-74
2022/06/27 01:55:52;;;;;;;8.70;5.88;;;;;;;19.50;98.75;100534.25;5051154;28;20116;-75
2022/06/27 01:58:17;;;;;;;7.32;5.82;;;;;;;19.48;97.97;100536.88;5051892;28;20190;-76
2022/06/27 02:00:43;;;;;;;8.52;5.85;;;;;;;19.26;96.39;100495.84;5052282;28;20502;-76
2022/06/27 02:03:08;;;;;;;8.43;5.65;;;;;;;19.73;94.87;100552.63;5051656;28;20032;-75
2022/06/27 02:05:34;;;;;;;8.18;6.80;;;;;;;19.76;95.43;100549.13;5016131;28;20037;-75
2022/06/27 02:08:01;;;;;;;8.80;6.38;;;;;;;19.62;95.15;100534.25;5051781;28;20051;-75
2022/06/27 02:10:26;;;;;;;13.80;6.72;;;;;;;19.63;96.77;100563.97;5050053;28;20059;-75
2022/06/27 02:12:53;;;;;;;9.68;6.05;;;;;;;19.60;96.81;100569.19;5051511;28;20428;-80
2022/06/27 02:15:18;;;;;;;9.68;5.90;;;;;;;19.32;97.58;100522.03;5050572;28;20029;-76
2022/06/27 02:17:43;;;;;;;9.13;5.90;;;;;;;19.38;96.72;100553.44;5065880;28;20558;-76
2022/06/27 02:20:09;;;;;;;10.13;6.10;;;;;;;19.43;96.61;100556.94;5051145;28;20017;-75
2022/06/27 02:22:35;;;;;;;9.02;5.85;;;;;;;19.45;95.35;100542.13;5051743;28;20095;-75
2022/06/27 02:25:00;;;;;;;13.25;6.05;;;;;;;18.85;95.30;100448.59;5051702;28;20024;-74
2022/06/27 02:27:30;;;;;;;8.18;6.65;;;;;;;19.48;95.15;100560.44;5051012;28;20017;-75
2022/06/27 02:29:55;;;;;;;9.07;5.82;;;;;;;19.48;94.20;100556.97;5051070;28;20053;-75
2022/06/27 02:32:21;;;;;;;7.97;6.18;;;;;;;19.28;94.56;100543.81;5051532;28;20044;-76
2022/06/27 02:34:50;;;;;;;10.80;5.82;;;;;;;18.91;94.68;100480.03;5046641;28;20443;-77
2022/06/27 02:37:17;;;;;;;9.85;5.72;;;;;;;19.46;93.08;100556.06;5050079;28;20551;-77
2022/06/27 02:39:44;;;;;;;8.05;6.53;;;;;;;19.52;92.78;100563.94;5050893;28;20041;-76
2022/06/27 02:42:11;;;;;;;12.50;6.55;;;;;;;19.35;95.40;100567.41;5050974;28;20102;-77
2022/06/27 02:44:39;;;;;;;8.70;6.25;;;;;;;19.28;96.88;100567.34;5051185;28;20020;-77
2022/06/27 02:47:05;;;;;;;9.95;6.30;;;;;;;19.27;97.18;100568.25;5051261;28;20060;-76
2022/06/27 02:49:31;;;;;;;7.57;6.20;;;;;;;19.10;96.97;100539.41;5050969;28;20115;-77
2022/06/27 02:52:20;;;;;;;8.23;6.30;;;;;;;18.86;97.09;100501.81;5050869;28;20399;-76
2022/06/27 02:54:58;;;;;;;9.68;6.68;;;;;;;19.03;97.21;100547.25;5050862;28;20021;-77
2022/06/27 02:57:35;;;;;;;9.10;6.28;;;;;;;19.07;97.71;100575.16;5051082;28;20028;-75
2022/06/27 03:00:03;;;;;;;8.90;6.40;;;;;;;18.21;97.18;100439.66;5050906;28;20032;-76
2022/06/27 03:02:28;;;;;;;9.30;6.60;;;;;;;18.82;98.34;100579.38;5049491;28;20037;-76
2022/06/27 03:04:56;;;;;;;12.07;7.60;;;;;;;18.54;100.00;100576.63;5050673;28;20396;-77
2022/06/27 03:07:21;;;;;;;12.82;8.02;;;;;;;18.49;100.00;100560.06;5050441;28;20408;-77
2022/06/27 03:09:47;;;;;;;12.18;8.20;;;;;;;18.58;100.00;100560.09;5050657;28;20033;-77
2022/06/27 03:12:12;;;;;;;12.38;8.40;;;;;;;18.71;100.00;100576.72;5050651;28;20096;-75
2022/06/27 03:14:38;;;;;;;11.05;7.80;;;;;;;18.65;100.00;100570.59;5051085;28;20020;-77
2022/06/27 03:17:04;;;;;;;15.18;8.75;;;;;;;18.71;100.00;100576.72;5050565;28;20024;-77
2022/06/27 03:19:30;;;;;;;17.65;9.95;;;;;;;18.63;100.00;100556.63;5050176;28;20525;-78
2022/06/27 03:21:56;;;;;;;11.15;8.38;;;;;;;18.65;100.00;100555.75;5049483;28;20054;-78
2022/06/27 03:24:21;;;;;;;13.02;9.02;;;;;;;18.37;100.00;100502.47;5050628;28;20494;-77
2022/06/27 03:26:47;;;;;;;13.52;8.85;;;;;;;18.71;99.82;100550.56;5050412;28;20495;-77
2022/06/27 03:29:12;;;;;;;13.88;8.32;;;;;;;18.92;99.33;100570.72;5050495;28;20044;-78
2022/06/27 03:31:39;;;;;;;12.48;8.40;;;;;;;18.91;99.85;100561.13;5049470;28;20036;-77
2022/06/27 03:34:05;;;;;;;11.23;8.20;;;;;;;18.99;99.70;100548.09;5050067;28;20553;-76
2022/06/27 03:36:30;;;;;;;11.93;8.65;;;;;;;19.07;99.40;100554.22;5046807;28;20113;-78
2022/06/27 03:39:17;;;;;;;11.60;8.02;;;;;;;19.17;99.71;100564.72;5065134;28;20045;-79
2022/06/27 03:41:43;;;;;;;11.73;8.00;;;;;;;19.18;99.81;100566.50;5063166;28;20416;-77
2022/06/27 03:44:09;;;;;;;11.43;7.90;;;;;;;19.14;100.00;100559.47;5066042;28;20039;-78
2022/06/27 03:46:36;;;;;;;11.95;8.38;;;;;;;19.08;99.82;100539.41;5067095;28;20541;-77
2022/06/27 03:51:47;;;;;;;15.35;8.10;;;;;;;19.18;99.82;100549.03;5064651;28;20039;-78
2022/06/27 03:54:14;;;;;;;14.40;9.02;;;;;;;19.32;99.43;100575.22;5066616;28;20095;-77
2022/06/27 03:56:42;;;;;;;12.13;7.95;;;;;;;19.32;99.87;100582.22;5069444;28;20032;-77
2022/06/27 03:59:16;;;;;;;11.23;7.65;;;;;;;19.33;99.49;100566.50;5055272;28;20947;-77
2022/06/27 04:02:10;;;;;;;13.88;8.68;;;;;;;19.06;100.00;100573.41;5029633;28;20119;-76
2022/06/27 04:04:37;;;;;;;13.15;8.95;;;;;;;18.90;100.00;100571.56;5028216;28;20132;-76
2022/06/27 04:07:03;;;;;;;12.50;8.07;;;;;;;18.97;100.00;100575.13;5027618;28;20037;-78
2022/06/27 04:09:30;;;;;;;11.60;8.20;;;;;;;18.97;100.00;100577.75;4997361;28;20103;-75
2022/06/27 04:11:56;;;;;;;10.63;8.35;;;;;;;19.13;100.00;100583.88;5027827;28;20045;-78
2022/06/27 04:14:21;;;;;;;9.82;8.30;;;;;;;19.07;100.00;100575.16;5027123;28;20411;-79
2022/06/27 04:16:46;;;;;;;16.67;9.30;;;;;;;19.10;100.00;100578.66;5027169;28;20103;-76
2022/06/27 04:19:12;;;;;;;13.93;9.38;;;;;;;19.04;100.00;100584.72;5028339;28;20039;-78
2022/06/27 04:21:42;;;;;;;14.10;8.95;;;;;;;19.13;100.00;100596.97;5032665;28;20069;-75
2022/06/27 04:24:08;;;;;;;11.02;8.82;;;;;;;19.12;100.00;100597.88;5013863;28;20065;-77
2022/06/27 04:26:41;;;;;;;11.98;9.07;;;;;;;19.23;100.00;100604.00;5014368;28;20500;-77
2022/06/27 04:29:07;;;;;;;13.02;9.70;;;;;;;19.23;100.00;100601.41;5009169;28;20069;-76
2022/06/27 04:31:33;;;;;;;14.60;9.63;;;;;;;19.11;100.00;100578.66;5011211;28;20554;-74
2022/06/27 04:33:59;;;;;;;12.40;10.27;;;;;;;18.53;100.00;100483.38;5048913;28;20499;-75
2022/06/27 04:36:25;;;;;;;12.88;10.07;;;;;;;18.97;100.00;100556.81;5053526;28;20025;-74
2022/06/27 04:38:51;;;;;;;15.18;10.75;;;;;;;19.21;100.00;100613.59;5053718;28;20037;-77
2022/06/27 04:41:16;;;;;;;16.38;9.75;;;;;;;19.20;100.00;100586.56;5053719;28;20529;-76
2022/06/27 04:43:42;;;;;;;14.20;10.70;;;;;;;19.16;100.00;100558.59;5053814;28;20052;-75
2022/06/27 04:46:07;;;;;;;16.52;9.75;;;;;;;19.43;100.00;100584.84;5053479;28;20069;-76
2022/06/27 04:48:34;;;;;;;17.77;10.60;;;;;;;19.49;100.00;100588.38;5053909;28;20025;-75
2022/06/27 04:51:01;;;;;;;14.25;9.65;;;;;;;19.53;100.00;100587.50;5053088;28;20031;-75
2022/06/27 04:53:27;;;;;;;13.38;9.90;;;;;;;19.62;100.00;100598.88;5053322;28;20491;-74
2022/06/27 04:55:54;;;;;;;11.48;9.80;;;;;;;19.28;100.00;100567.34;5052227;28;20415;-79
2022/06/27 04:58:20;;;;;;;15.13;10.27;;;;;;;19.23;100.00;100552.53;5053920;28;20029;-76
2022/06/27 05:00:46;;;;;;;16.00;10.20;;;;;;;19.43;100.00;100554.31;5053236;28;20070;-76
2022/06/27 05:03:12;;;;;;;14.45;10.55;;;;;;;19.25;100.00;100513.25;5053582;28;20480;-76
2022/06/27 05:05:37;;;;;;;17.60;11.63;;;;;;;19.66;100.00;100584.91;5052997;28;20108;-77
2022/06/27 05:08:03;;;;;;;13.55;11.13;;;;;;;19.79;100.00;100594.53;5034433;28;20043;-76
2022/06/27 05:10:28;;;;;;;16.23;11.45;;;;;;;19.72;100.00;100574.44;5053256;28;20480;-74
2022/06/27 05:12:55;;;;;;;14.55;11.05;;;;;;;19.72;100.00;100569.19;5053246;28;20043;-76
2022/06/27 05:15:20;;;;;;;14.07;11.52;;;;;;;19.82;100.00;100597.13;5053599;28;20032;-75
2022/06/27 05:17:46;;;;;;;17.90;12.00;;;;;;;19.61;100.00;100563.06;5052828;28;20031;-75
2022/06/27 05:20:12;;;;;;;16.58;12.77;;;;;;;19.90;100.00;100602.44;5052980;28;20032;-75
2022/06/27 05:22:38;;;;;;;17.48;12.63;;;;;;;19.97;100.00;100600.69;5052260;28;20032;-75
2022/06/27 05:25:04;;;;;;;16.42;12.38;;;;;;;20.03;100.00;100598.94;5052956;28;20024;-76
2022/06/27 05:27:30;;;;;;;14.15;11.57;;;;;;;20.11;100.00;100598.06;5049793;28;20124;-74
2022/06/27 05:29:56;;;;;;;20.02;12.07;;;;;;;20.30;100.00;100601.53;5047581;28;20120;-74
2022/06/27 05:32:21;;;;;;;16.80;10.93;;;;;;;20.36;100.00;100605.03;5051114;28;20039;-74
2022/06/27 05:34:48;;;;;;;16.98;11.77;;;;;;;20.47;100.00;100607.66;5052573;28;20032;-75
2022/06/27 05:37:13;;;;;;;14.45;11.50;;;;;;;20.51;100.00;100593.66;5052872;28;20138;-75
2022/06/27 05:39:43;;;;;;;15.85;11.60;;;;;;;20.66;100.00;100602.34;5052839;28;20055;-75
2022/06/27 05:42:08;;;;;;;14.98;11.23;;;;;;;20.82;100.00;100596.22;5052713;28;20048;-75
2022/06/27 05:44:34;;;;;;;17.17;10.77;;;;;;;20.56;100.00;100533.31;5052546;28;20075;-76
2022/06/27 05:47:00;;;;;;;15.52;10.85;;;;;;;21.03;100.00;100601.41;5052646;28;20094;-76
2022/06/27 05:49:26;;;;;;;14.95;11.32;;;;;;;21.01;100.00;100589.16;5052594;28;20064;-76
2022/06/27 05:51:53;;;;;;;12.73;10.68;;;;;;;21.23;100.00;100601.31;5052768;28;20036;-76
2022/06/27 05:54:21;;;;;;;16.73;10.60;;;;;;;21.20;100.00;100589.06;5052590;28;20488;-75
2022/06/27 05:56:47;;;;;;;10.43;8.55;;;;;;;21.07;98.42;100562.00;5052693;28;20021;-76
2022/06/27 05:59:13;;;;;;;9.65;8.02;;;;;;;21.13;nan;100588.22;5052687;28;20064;-75
2022/06/27 06:01:39;;;;;;;10.55;7.85;;;;;;;21.07;99.33;100582.13;5052774;28;20017;-76
2022/06/27 06:04:05;;;;;;;9.90;7.82;;;;;;;21.22;99.16;100605.69;5046597;28;20033;-77
2022/06/27 06:06:31;;;;;;;11.70;7.82;;;;;;;21.30;99.36;100613.53;5045938;28;20037;-77
2022/06/27 06:08:57;;;;;;;13.70;7.88;;;;;;;21.37;98.00;100610.00;5032072;28;20026;-76
2022/06/27 06:11:24;;;;;;;9.82;7.38;;;;;;;21.25;97.84;100589.91;5032294;28;20033;-79
2022/06/27 06:13:52;;;;;;;9.20;7.65;;;;;;;21.44;99.29;100595.91;5031146;28;20021;-77
2022/06/27 06:16:19;;;;;;;7.53;6.22;;;;;;;21.39;96.57;100568.81;5032572;28;20025;-77
2022/06/27 06:18:52;;;;;;;9.00;6.30;;;;;;;21.71;94.96;100616.81;5032019;28;20100;-79
2022/06/27 06:21:18;;;;;;;9.23;5.80;;;;;;;21.74;93.64;100609.78;5032312;28;20037;-77
2022/06/27 06:23:44;;;;;;;8.52;6.13;;;;;;;21.86;92.88;100621.97;5032242;28;20439;-75
2022/06/27 06:26:09;;;;;;;8.75;6.30;;;;;;;21.50;92.70;100539.88;5032443;28;20029;-76
2022/06/27 06:28:35;;;;;;;10.75;6.38;;;;;;;21.95;93.75;100584.22;5032206;28;20022;-77
2022/06/27 06:31:01;;;;;;;8.45;5.95;;;;;;;22.12;91.68;100607.75;5059094;28;20053;-78
2022/06/27 06:33:26;;;;;;;9.13;6.07;;;;;;;22.20;93.12;100605.06;5030576;28;20029;-78
2022/06/27 06:35:52;;;;;;;7.20;6.25;;;;;;;21.99;91.46;100541.25;5041849;28;20033;-74
2022/06/27 06:38:18;;;;;;;11.40;6.85;;;;;;;22.36;92.17;100601.38;5051495;28;20029;-76
2022/06/27 06:40:43;;;;;;;10.27;6.93;;;;;;;22.24;89.71;100548.91;5050643;28;20039;-77
2022/06/27 06:43:09;;;;;;;9.77;6.65;;;;;;;22.58;89.15;100614.34;5051427;28;20025;-75
2022/06/27 06:45:35;;;;;;;8.02;6.68;;;;;;;22.66;90.61;100603.75;5050022;28;20040;-76
2022/06/27 06:48:02;;;;;;;11.05;6.90;;;;;;;22.64;87.98;100597.63;5034261;28;20040;-78
2022/06/27 06:50:27;;;;;;;9.57;6.43;;;;;;;22.79;88.30;100607.97;5051245;28;20142;-77
2022/06/27 06:52:53;;;;;;;11.13;6.57;;;;;;;22.84;87.13;100608.81;5031759;28;20128;-77
2022/06/27 06:55:24;;;;;;;8.38;6.78;;;;;;;22.85;86.15;100614.94;5031614;28;20424;-77
2022/06/27 06:57:50;;;;;;;8.48;6.47;;;;;;;22.91;88.23;100612.25;5031660;28;20037;-76
2022/06/27 07:00:17;;;;;;;6.45;5.70;;;;;;;22.77;85.75;100581.69;5031541;28;20037;-77
2022/06/27 07:02:43;;;;;;;6.20;5.40;;;;;;;22.96;84.19;100602.53;5031710;28;20476;-76
2022/06/27 07:05:11;;;;;;;9.18;6.30;;;;;;;23.18;86.00;100613.69;5031753;28;20036;-77
2022/06/27 07:07:39;;;;;;;7.22;5.82;;;;;;;23.12;82.49;100592.66;5031695;28;20033;-76
2022/06/27 07:10:06;;;;;;;10.43;5.35;;;;;;;23.40;82.85;100606.38;5031358;28;20033;-76
2022/06/27 07:12:33;;;;;;;5.68;4.90;;;;;;;23.19;81.54;100553.97;5031365;28;20029;-75
2022/06/27 07:15:01;;;;;;;6.30;5.10;;;;;;;23.36;80.13;100551.97;5031095;28;20021;-76
2022/06/27 07:17:28;;;;;;;6.03;4.65;;;;;;;23.78;78.32;100609.34;5031457;28;20021;-76
2022/06/27 07:19:54;;;;;;;8.07;4.93;;;;;;;23.73;79.20;100596.22;5031442;28;20056;-76
2022/06/27 07:22:20;;;;;;;6.05;4.53;;;;;;;23.86;80.35;100601.28;5031236;28;20030;-76
2022/06/27 07:24:47;;;;;;;6.43;4.78;;;;;;;23.94;78.58;100610.00;5031146;28;20040;-76
2022/06/27 07:27:15;;;;;;;8.55;4.30;;;;;;;23.94;76.62;100620.53;5012418;28;20041;-76
2022/06/27 07:29:41;;;;;;;8.80;4.20;;;;;;;23.99;74.44;100618.69;5031287;28;20501;-76
2022/06/27 07:32:08;;;;;;;5.43;4.45;;;;;;;23.92;76.44;100580.13;5030887;28;20069;-77
2022/06/27 07:34:34;;;;;;;8.18;4.25;;;;;;;24.22;74.13;100614.78;5030924;28;20033;-76
2022/06/27 07:37:00;;;;;;;6.07;4.28;;;;;;;24.23;73.75;100616.53;5044268;28;20033;-74
2022/06/27 07:39:26;;;;;;;6.93;4.40;;;;;;;24.01;72.99;100556.25;5034424;28;20037;-75
2022/06/27 07:41:53;;;;;;;6.60;4.40;;;;;;;24.38;71.65;100610.13;5047363;28;20033;-75
2022/06/27 07:44:19;;;;;;;6.22;4.10;;;;;;;24.51;72.77;100610.75;5046921;28;20475;-78
2022/06/27 07:46:44;;;;;;;7.40;4.45;;;;;;;24.48;70.34;100587.94;5050282;28;20049;-76
2022/06/27 07:49:10;;;;;;;7.20;4.50;;;;;;;24.33;75.05;100553.94;5050415;28;20104;-75
2022/06/27 07:51:35;;;;;;;5.35;4.18;;;;;;;24.78;70.65;100619.94;5037739;28;20465;-78
2022/06/27 07:54:02;;;;;;;6.68;4.15;;;;;;;24.72;68.74;100588.38;5031542;28;20439;-76
2022/06/27 07:56:28;;;;;;;6.78;4.43;;;;;;;24.97;69.20;100619.59;5029479;28;20029;-74
2022/06/27 07:58:54;;;;;;;7.28;4.30;;;;;;;24.93;70.55;100599.44;5029502;28;20064;-77
2022/06/27 08:01:20;;;;;;;9.15;4.75;;;;;;;25.11;69.71;100604.34;5036612;28;20048;-77
2022/06/27 08:03:48;;;;;;;8.40;4.60;;;;;;;24.89;67.84;100574.84;5030771;28;20025;-77
2022/06/27 08:06:22;;;;;;;5.60;4.20;;;;;;;25.19;70.09;100615.59;5036993;28;20021;-78
2022/06/27 08:09:03;;;;;;;5.63;4.15;;;;;;;25.34;71.50;100613.53;5029443;28;20041;-76
2022/06/27 08:11:37;;;;;;;8.02;4.43;;;;;;;25.48;70.30;100600.91;5036359;28;20036;-80
2022/06/27 08:14:09;;;;;;;8.95;4.05;;;;;;;25.78;68.90;100601.09;5035958;28;20420;-77
2022/06/27 08:16:36;;;;;;;6.75;4.57;;;;;;;25.98;69.12;100605.88;5029441;28;20147;-77
2022/06/27 08:19:02;;;;;;;7.03;4.32;;;;;;;26.00;64.74;100582.88;5029598;28;20087;-76
2022/06/27 08:21:28;;;;;;;7.90;4.40;;;;;;;26.14;66.83;100584.34;5029405;28;20048;-77
2022/06/27 08:24:03;;;;;;;8.95;4.47;;;;;;;26.11;67.37;100579.16;5010506;28;20793;-75
2022/06/27 08:26:30;;;;;;;6.45;4.20;;;;;;;26.28;67.07;100582.22;5029725;28;20018;-77
2022/06/27 08:28:58;;;;;;;8.52;3.85;;;;;;;26.32;63.69;100589.16;5029387;28;20111;-77
2022/06/27 08:31:25;;;;;;;5.85;4.18;;;;;;;26.43;66.79;100577.41;5032083;28;20040;-77
2022/06/27 08:33:58;;;;;;;7.03;4.07;;;;;;;26.40;64.88;100588.09;5029092;28;20030;-76
2022/06/27 08:36:26;;;;;;;4.45;3.75;;;;;;;26.30;60.51;100569.78;5029036;28;20033;-77
2022/06/27 08:38:52;;;;;;;6.68;3.75;;;;;;;26.45;61.46;100567.66;5029652;28;20038;-77
2022/06/27 08:41:20;;;;;;;6.47;3.95;;;;;;;26.38;59.10;100581.97;5034478;28;20636;-77
2022/06/27 08:43:48;;;;;;;6.40;3.88;;;;;;;26.25;62.09;100534.66;5029369;28;20116;-76
2022/06/27 08:46:18;;;;;;;5.47;3.72;;;;;;;26.48;60.75;100579.03;5038230;28;20075;-78
2022/06/27 08:48:45;;;;;;;4.97;3.72;;;;;;;26.57;63.05;100580.56;5041915;28;20025;-76
2022/06/27 08:51:12;;;;;;;5.82;3.75;;;;;;;26.55;58.95;100565.63;5049543;28;20032;-78
2022/06/27 08:53:39;;;;;;;6.65;3.75;;;;;;;26.75;60.66;100571.25;5048398;28;20029;-77
2022/06/27 08:56:12;;;;;;;5.50;3.67;;;;;;;26.66;58.27;100544.16;5049358;28;20037;-78
2022/06/27 08:58:39;;;;;;;7.60;3.85;;;;;;;27.11;58.77;100576.38;5016255;28;20056;-79
2022/06/27 09:01:06;;;;;;;6.07;3.90;;;;;;;27.08;60.62;100565.88;5049135;28;20110;-79
2022/06/27 09:03:34;;;;;;;4.35;3.70;;;;;;;26.10;59.97;100426.59;5048513;28;20412;-78
2022/06/27 09:06:02;;;;;;;5.50;3.80;;;;;;;26.95;60.65;100561.84;5051708;28;20408;-82
2022/06/27 09:08:32;;;;;;;9.25;3.60;;;;;;;26.95;57.88;100568.03;5068621;28;20350;-76
2022/06/27 09:10:58;;;;;;;;;;;;;;;27.00;59.50;100569.66;5053203;28;20037;-78
2022/06/27 09:13:26;;;;;;;6.15;3.85;;;;;;;27.11;59.58;100549.88;5053273;28;19920;-78
2022/06/27 09:16:00;;;;;;;7.05;3.92;;;;;;;27.28;60.98;100541.41;5052816;28;20053;-78
2022/06/27 09:18:30;;;;;;;6.57;3.95;;;;;;;27.57;57.53;100552.03;5051689;28;20035;-77
2022/06/27 09:21:11;;;;;;;5.63;3.35;;;;;;;27.80;59.43;100539.78;5038732;28;20033;-80
2022/06/27 09:23:49;;;;;;;4.93;3.50;;;;;;;28.02;56.88;100556.69;5032278;28;20029;-79
2022/06/27 09:26:18;;;;;;;4.50;3.60;;;;;;;28.04;55.80;100562.84;5031122;28;20104;-78
2022/06/27 09:29:04;;;;;;;8.85;3.55;;;;;;;27.92;55.34;100550.84;5031831;28;20026;-77
2022/06/27 09:31:35;;;;;;;7.00;3.80;;;;;;;28.03;58.58;100566.41;5050468;28;20053;-82
2022/06/27 09:34:16;;;;;;;5.47;3.90;;;;;;;28.04;57.91;100556.69;5035220;28;20042;-81
2022/06/27 09:36:50;;;;;;;4.10;3.25;;;;;;;27.81;54.61;100504.38;5030679;28;21193;-77
2022/06/27 09:39:39;;;;;;;4.53;3.42;;;;;;;27.84;53.31;100502.50;5037445;28;20029;-77
2022/06/27 09:42:10;;;;;;;8.52;3.90;;;;;;;27.82;55.06;100554.72;5046837;28;20060;-77
2022/06/27 09:44:41;;;;;;;5.95;4.07;;;;;;;27.76;55.95;100550.50;5046390;28;20033;-78
2022/06/27 09:47:16;;;;;;;6.63;3.60;;;;;;;28.03;58.27;100546.97;5049849;28;20017;-75
2022/06/27 09:49:44;;;;;;;5.95;3.67;;;;;;;28.16;55.78;100532.34;5048211;28;20029;-81
2022/06/27 09:52:14;;;;;;;7.90;3.75;;;;;;;28.44;55.51;100542.00;5032287;28;20115;-78
2022/06/27 09:54:42;;;;;;;7.30;3.60;;;;;;;28.44;53.69;100511.91;5051416;28;20484;-76
2022/06/27 09:57:09;;;;;;;4.90;3.40;;;;;;;28.24;52.84;100439.19;5052359;28;20029;-80
2022/06/27 09:59:36;;;;;;;7.03;3.50;;;;;;;28.78;54.62;100508.03;5049780;28;20033;-81
2022/06/27 10:02:04;;;;;;;7.28;3.65;;;;;;;28.72;51.93;100488.75;5051457;28;20035;-79
2022/06/27 10:04:31;;;;;;;5.15;3.03;;;;;;;28.98;51.12;100518.72;5051335;28;20098;-83
2022/06/27 10:07:01;;;;;;;5.15;3.60;;;;;;;28.93;51.25;100517.19;5050341;28;20120;-78
2022/06/27 10:09:29;;;;;;;6.65;3.40;;;;;;;28.85;52.90;100520.16;5036785;28;20044;-78
2022/06/27 10:12:21;;;;;;;5.05;2.90;;;;;;;29.14;46.67;100529.63;5041357;28;20045;-78
2022/06/27 10:14:46;;;;;;;4.85;2.88;;;;;;;29.27;46.42;100521.16;5031363;28;20088;-76
2022/06/27 10:17:15;;;;;;;5.32;3.13;;;;;;;29.31;46.16;100529.00;5031100;28;20029;-77
2022/06/27 10:19:59;;;;;;;5.75;3.30;;;;;;;29.28;47.82;100517.59;5031252;28;20040;-76
2022/06/27 10:22:26;;;;;;;4.68;3.58;;;;;;;29.04;48.83;100504.34;5035726;28;20116;-76
2022/06/27 10:24:51;;;;;;;5.78;3.50;;;;;;;28.96;50.01;100517.94;5033633;28;20403;-80
2022/06/27 10:27:31;;;;;;;5.75;3.55;;;;;;;28.68;51.77;100518.13;5030656;28;20025;-81
2022/06/27 10:29:59;;;;;;;5.90;3.72;;;;;;;28.82;51.11;100510.47;5043790;28;20046;-76
2022/06/27 10:32:44;;;;;;;6.47;3.33;;;;;;;29.22;52.78;100513.38;5031057;28;20032;-76
2022/06/27 10:35:11;;;;;;;5.22;3.10;;;;;;;29.33;50.39;100479.25;5031095;28;20676;-78
2022/06/27 10:37:39;;;;;;;5.40;3.20;;;;;;;29.62;50.64;100495.81;5030298;28;20022;-76
2022/06/27 10:40:19;;;;;;;4.93;3.35;;;;;;;29.78;49.64;100493.34;5030580;28;20176;-81
2022/06/27 10:42:50;;;;;;;5.75;3.22;;;;;;;29.52;47.74;100495.34;5033701;28;20029;-78
2022/06/27 10:45:21;;;;;;;8.90;3.28;;;;;;;29.27;48.67;100500.75;5032136;28;20055;-82
2022/06/27 10:47:51;;;;;;;9.50;3.50;;;;;;;29.01;49.32;100509.78;5029659;28;20026;-75
2022/06/27 10:50:18;;;;;;;12.07;3.67;;;;;;;29.03;49.75;100444.16;5029960;28;20025;-78
2022/06/27 10:52:45;;;;;;;6.13;2.60;;;;;;;29.32;44.93;100482.00;5029568;28;20508;-78
2022/06/27 10:55:29;;;;;;;5.10;3.30;;;;;;;29.79;47.91;100494.22;5029717;28;20025;-78
2022/06/27 10:57:56;;;;;;;5.90;2.80;;;;;;;30.00;48.69;100431.25;5029863;28;20063;-77
2022/06/27 11:00:48;;;;;;;5.65;2.72;;;;;;;29.76;46.28;100439.34;5045362;28;20698;-79
2022/06/27 11:03:25;;;;;;;8.20;3.30;;;;;;;29.86;48.02;100480.59;4931001;29;20102;-76
2022/06/27 11:05:58;;;;;;;5.30;2.92;;;;;;;30.23;47.31;100483.44;4927766;29;20039;-73
2022/06/27 11:08:24;;;;;;;5.82;2.80;;;;;;;30.49;45.06;100471.63;4922814;29;20082;-74
2022/06/27 11:10:50;;;;;;;3.25;2.33;;;;;;;30.50;43.16;100448.50;4930861;29;20039;-74
2022/06/27 11:13:37;;;;;;;4.78;3.00;;;;;;;30.01;43.94;100465.75;4930800;29;20039;-76
2022/06/27 11:16:04;;;;;;;8.70;3.30;;;;;;;29.84;44.91;100476.25;4930446;29;20032;-75
2022/06/27 11:18:47;;;;;;;5.93;2.97;;;;;;;30.08;47.23;100461.03;4930770;29;20051;-77
2022/06/27 11:21:16;;;;;;;6.63;3.42;;;;;;;30.14;48.13;100442.09;4930838;29;20036;-78
2022/06/27 11:23:59;;;;;;;6.03;3.17;;;;;;;30.14;46.40;100471.41;4930861;29;20050;-78
2022/06/27 11:26:38;;;;;;;3.85;3.10;;;;;;;29.84;47.42;100433.69;4898565;29;20047;-71
2022/06/27 11:32:18;;;;;;;4.68;3.08;;;;;;;30.71;47.66;100469.78;4930678;29;20663;-69